createdAt,value
2017-08-14T00:01:20.642Z,59.30
2017-08-14T00:03:48.714Z,59.30
2017-08-14T00:06:16.806Z,59.10
2017-08-14T00:08:45.667Z,59.30
2017-08-14T00:11:13.786Z,59.20
2017-08-14T00:13:41.857Z,59.80
2017-08-14T00:16:10.698Z,59.60
2017-08-14T00:18:38.799Z,60.10
2017-08-14T00:21:07.657Z,61.60
2017-08-14T00:23:36.159Z,59.70
2017-08-14T00:26:04.235Z,59.80
2017-08-14T00:28:32.302Z,60.10
2017-08-14T00:31:00.407Z,60.60
2017-08-14T00:33:29.247Z,60.10
2017-08-14T00:35:57.322Z,60.20
2017-08-14T00:38:25.811Z,60.80
2017-08-14T00:40:53.887Z,61.00
2017-08-14T00:43:22.032Z,60.70
2017-08-14T00:45:50.831Z,61.10
2017-08-14T00:48:18.935Z,60.60
2017-08-14T00:50:47.774Z,61.70
2017-08-14T00:53:15.855Z,61.00
2017-08-14T00:55:44.359Z,61.70
2017-08-14T00:58:12.427Z,62.00
2017-08-14T01:00:40.503Z,62.30
2017-08-14T01:03:08.602Z,62.00
2017-08-14T01:05:37.077Z,61.90
2017-08-14T01:08:05.186Z,62.50
2017-08-14T01:10:33.263Z,62.30
2017-08-14T01:13:01.334Z,62.00
2017-08-14T01:15:29.446Z,62.40
2017-08-14T01:17:57.919Z,62.20
2017-08-14T01:20:26.390Z,62.70
2017-08-14T01:22:54.493Z,63.70
2017-08-14T01:25:22.586Z,63.40
2017-08-14T01:27:51.430Z,64.40
2017-08-14T01:30:19.555Z,63.40
2017-08-14T01:32:48.390Z,65.30
2017-08-14T01:35:16.466Z,64.10
2017-08-14T01:37:44.570Z,64.10
2017-08-14T01:40:12.647Z,64.20
2017-08-14T01:42:42.122Z,64.20
2017-08-14T01:45:10.219Z,65.00
2017-08-14T01:47:39.104Z,64.60
2017-08-14T01:50:07.185Z,65.10
2017-08-14T01:52:35.263Z,65.50
2017-08-14T01:55:04.123Z,66.00
2017-08-14T01:57:32.224Z,65.50
2017-08-14T02:00:01.069Z,67.10
2017-08-14T02:02:29.170Z,65.70
2017-08-14T02:04:57.279Z,65.40
2017-08-14T02:07:25.746Z,66.10
2017-08-14T02:09:54.215Z,65.90
2017-08-14T02:12:23.084Z,66.30
2017-08-14T02:14:51.159Z,66.00
2017-08-14T02:17:19.257Z,65.80
2017-08-14T02:19:48.106Z,66.10
2017-08-14T02:22:16.600Z,66.50
2017-08-14T02:24:44.696Z,67.00
2017-08-14T02:27:13.539Z,67.60
2017-08-14T02:29:41.639Z,67.50
2017-08-14T02:32:09.716Z,68.00
2017-08-14T02:37:07.212Z,68.60
2017-08-14T02:39:36.053Z,70.00
2017-08-14T02:42:04.919Z,69.30
2017-08-14T02:44:32.991Z,69.00
2017-08-14T02:47:01.095Z,69.50
2017-08-14T02:49:29.203Z,69.50
2017-08-14T02:51:57.276Z,69.00
2017-08-14T02:54:25.751Z,68.70
2017-08-14T02:56:53.854Z,69.00
2017-08-14T02:59:22.331Z,68.90
2017-08-14T03:01:50.411Z,68.80
2017-08-14T03:04:18.528Z,68.30
2017-08-14T03:06:47.378Z,68.30
2017-08-14T03:09:15.843Z,69.00
2017-08-14T03:11:44.713Z,69.10
2017-08-14T03:14:12.794Z,68.50
2017-08-14T03:16:41.659Z,69.60
2017-08-14T03:19:09.739Z,68.70
2017-08-14T03:21:37.847Z,68.40
2017-08-14T03:24:06.320Z,68.50
2017-08-14T03:26:35.256Z,67.90
2017-08-14T03:29:03.319Z,68.10
2017-08-14T03:31:31.399Z,67.40
2017-08-14T03:33:59.500Z,67.50
2017-08-14T03:36:27.598Z,67.60
2017-08-14T03:38:56.067Z,67.60
2017-08-14T03:41:24.935Z,69.30
2017-08-14T03:43:53.016Z,67.80
2017-08-14T03:46:21.106Z,67.90
2017-08-14T03:48:49.687Z,67.60
2017-08-14T03:51:18.535Z,68.70
2017-08-14T03:53:46.615Z,67.60
2017-08-14T03:56:14.711Z,67.70
2017-08-14T03:58:42.795Z,68.10
2017-08-14T04:01:10.895Z,68.20
2017-08-14T04:03:39.375Z,68.50
2017-08-14T04:06:07.460Z,69.00
2017-08-14T04:08:35.548Z,69.60
2017-08-14T04:11:03.618Z,70.60
2017-08-14T04:13:32.479Z,70.70
2017-08-14T04:16:00.554Z,71.00
2017-08-14T04:18:29.046Z,71.90
2017-08-14T04:20:57.128Z,71.80
2017-08-14T04:23:25.230Z,72.30
2017-08-14T04:25:53.351Z,71.80
2017-08-14T04:28:21.418Z,71.90
2017-08-14T04:30:50.259Z,71.80
2017-08-14T04:33:18.828Z,71.60
2017-08-14T04:35:47.631Z,71.10
2017-08-14T04:38:15.708Z,70.90
2017-08-14T04:40:44.203Z,71.00
2017-08-14T04:43:12.299Z,71.10
2017-08-14T04:45:41.143Z,71.20
2017-08-14T04:48:09.258Z,70.20
2017-08-14T04:50:38.111Z,71.70
2017-08-14T04:53:06.186Z,71.80
2017-08-14T04:55:34.281Z,73.10
2017-08-14T04:58:03.124Z,73.10
2017-08-14T05:00:31.223Z,71.80
2017-08-14T05:02:59.295Z,71.90
2017-08-14T05:05:28.268Z,71.10
2017-08-14T05:07:56.331Z,70.30
2017-08-14T05:10:24.411Z,70.90
2017-08-14T05:12:52.508Z,71.40
2017-08-14T05:15:20.587Z,71.00
2017-08-14T05:17:48.683Z,71.50
2017-08-14T05:20:17.527Z,72.30
2017-08-14T05:22:45.626Z,71.80
2017-08-14T05:25:13.716Z,71.70
2017-08-14T05:27:42.558Z,72.80
2017-08-14T05:30:10.659Z,72.00
2017-08-14T05:32:38.740Z,72.20
2017-08-14T05:35:06.811Z,72.30
2017-08-14T05:37:34.906Z,72.90
2017-08-14T05:40:03.011Z,71.50
2017-08-14T05:42:31.092Z,70.10
2017-08-14T05:44:59.191Z,69.20
2017-08-14T05:47:27.286Z,69.40
2017-08-14T05:49:56.135Z,69.40
2017-08-14T05:52:24.243Z,68.80
2017-08-14T05:54:53.092Z,69.70
2017-08-14T05:57:21.175Z,67.70
2017-08-14T05:59:49.287Z,68.00
2017-08-14T06:02:17.777Z,66.80
2017-08-14T06:04:46.610Z,67.80
2017-08-14T06:07:14.713Z,67.80
2017-08-14T06:09:43.191Z,66.20
2017-08-14T06:12:11.296Z,66.70
2017-08-14T06:14:39.370Z,65.00
2017-08-14T06:17:07.451Z,65.50
2017-08-14T06:19:35.571Z,65.80
2017-08-14T06:22:03.646Z,66.30
2017-08-14T06:24:31.722Z,65.60
2017-08-14T06:26:59.821Z,67.20
2017-08-14T06:29:28.688Z,66.80
2017-08-14T06:31:56.762Z,65.30
2017-08-14T06:34:25.274Z,65.40
2017-08-14T06:36:53.350Z,63.00
2017-08-14T06:39:21.433Z,61.60
2017-08-14T06:41:49.931Z,61.20
2017-08-14T06:44:18.011Z,60.10
2017-08-14T06:46:46.103Z,59.50
2017-08-14T06:49:14.185Z,58.20
2017-08-14T06:51:42.700Z,58.50
2017-08-14T06:54:10.780Z,55.70
2017-08-14T06:56:38.863Z,56.80
2017-08-14T06:59:06.963Z,54.70
2017-08-14T07:01:35.430Z,56.60
2017-08-14T07:04:03.526Z,57.10
2017-08-14T07:06:32.004Z,56.80
2017-08-14T07:09:00.084Z,54.60
2017-08-14T07:11:28.183Z,54.90
2017-08-14T07:13:57.028Z,55.10
2017-08-14T07:16:25.908Z,55.90
2017-08-14T07:18:53.983Z,56.00
2017-08-14T07:21:22.459Z,54.80
2017-08-14T07:23:50.550Z,54.10
2017-08-14T07:26:18.631Z,53.70
2017-08-14T07:28:46.739Z,54.10
2017-08-14T07:31:14.820Z,50.20
2017-08-14T07:33:42.903Z,49.30
2017-08-14T07:36:10.998Z,50.40
2017-08-14T07:38:39.100Z,50.00
2017-08-14T07:41:07.179Z,49.50
2017-08-14T07:43:35.279Z,49.10
2017-08-14T07:46:03.371Z,49.40
2017-08-14T07:48:31.452Z,49.20
2017-08-14T07:50:59.556Z,47.90
2017-08-14T07:53:27.635Z,48.90
2017-08-14T07:55:56.131Z,48.70
2017-08-14T07:58:24.975Z,49.60
2017-08-14T08:00:53.079Z,49.50
2017-08-14T08:03:21.218Z,50.30
2017-08-14T08:05:49.260Z,51.20
2017-08-14T08:08:17.375Z,51.30
2017-08-14T08:10:45.452Z,50.40
2017-08-14T08:13:13.531Z,49.80
2017-08-14T08:15:41.666Z,48.50
2017-08-14T08:18:09.751Z,49.60
2017-08-14T08:20:37.823Z,46.80
2017-08-14T08:23:05.927Z,48.80
2017-08-14T08:25:34.069Z,48.90
2017-08-14T08:28:02.875Z,48.10
2017-08-14T08:30:30.980Z,48.60
2017-08-14T08:32:59.821Z,48.70
2017-08-14T08:35:27.923Z,48.40
2017-08-14T08:37:56.022Z,50.10
2017-08-14T08:40:24.499Z,48.60
2017-08-14T08:42:53.382Z,50.40
2017-08-14T08:45:22.228Z,49.30
2017-08-14T08:47:50.695Z,48.60
2017-08-14T08:50:18.796Z,49.40
2017-08-14T08:52:47.276Z,48.90
2017-08-14T08:55:16.189Z,48.60
2017-08-14T08:57:44.656Z,48.40
2017-08-14T09:00:12.736Z,46.80
2017-08-14T09:02:40.831Z,47.80
2017-08-14T09:05:09.712Z,46.30
2017-08-14T09:07:37.797Z,47.60
2017-08-14T09:10:06.640Z,46.80
2017-08-14T09:12:34.744Z,47.90
2017-08-14T09:15:03.240Z,48.20
2017-08-14T09:17:31.719Z,47.70
2017-08-14T09:20:00.584Z,47.40
2017-08-14T09:22:29.064Z,46.50
2017-08-14T09:24:57.171Z,45.60
2017-08-14T09:27:25.638Z,43.50
2017-08-14T09:29:54.490Z,42.30
2017-08-14T09:32:22.591Z,42.00
2017-08-14T09:34:50.668Z,41.00
2017-08-14T09:37:18.776Z,41.30
2017-08-14T09:39:46.852Z,41.20
2017-08-14T09:42:14.947Z,40.80
2017-08-14T09:44:43.028Z,40.80
2017-08-14T09:47:11.535Z,40.60
2017-08-14T09:49:39.636Z,40.30
2017-08-14T09:52:08.096Z,40.80
2017-08-14T09:54:36.198Z,41.40
2017-08-14T09:57:04.296Z,39.60
2017-08-14T09:59:32.772Z,39.40
2017-08-14T10:02:01.279Z,41.40
2017-08-14T10:04:29.361Z,41.40
2017-08-14T10:06:57.840Z,38.60
2017-08-14T10:09:25.940Z,37.30
2017-08-14T10:11:54.407Z,35.80
2017-08-14T10:14:22.908Z,36.80
2017-08-14T10:16:51.420Z,37.50
2017-08-14T10:19:19.504Z,35.50
2017-08-14T10:21:47.584Z,35.30
2017-08-14T10:24:15.754Z,35.90
2017-08-14T10:26:44.207Z,34.80
2017-08-14T10:29:12.292Z,33.00
2017-08-14T10:31:40.403Z,35.10
2017-08-14T10:34:08.478Z,35.40
2017-08-14T10:36:36.560Z,33.50
2017-08-14T10:39:04.658Z,34.60
2017-08-14T10:41:33.495Z,33.10
2017-08-14T10:44:01.608Z,31.30
2017-08-14T10:46:30.550Z,32.00
2017-08-14T10:48:58.593Z,30.50
2017-08-14T10:51:26.692Z,30.60
2017-08-14T10:53:54.767Z,31.10
2017-08-14T10:56:22.838Z,31.80
2017-08-14T10:58:50.951Z,29.90
2017-08-14T11:01:19.026Z,31.40
2017-08-14T11:03:47.872Z,29.00
2017-08-14T11:06:15.972Z,28.90
2017-08-14T11:08:45.550Z,28.80
2017-08-14T11:11:13.672Z,28.80
2017-08-14T11:13:42.258Z,28.30
2017-08-14T11:16:10.251Z,28.70
2017-08-14T11:18:38.351Z,30.40
2017-08-14T11:21:06.464Z,31.60
2017-08-14T11:23:35.418Z,30.60
2017-08-14T11:26:03.461Z,29.70
2017-08-14T11:28:31.563Z,30.00
2017-08-14T11:30:59.639Z,26.40
2017-08-14T11:33:28.522Z,27.20
2017-08-14T11:35:56.594Z,26.50
2017-08-14T11:38:24.680Z,26.10
2017-08-14T11:40:52.759Z,28.00
2017-08-14T11:43:21.322Z,25.70
2017-08-14T11:45:49.388Z,26.20
2017-08-14T11:48:17.534Z,24.30
2017-08-14T11:50:45.607Z,25.80
2017-08-14T11:53:13.684Z,24.60
2017-08-14T11:55:41.779Z,24.90
2017-08-14T11:58:09.863Z,26.00
2017-08-14T12:00:37.972Z,25.70
2017-08-14T12:03:06.857Z,24.10
2017-08-14T12:05:34.936Z,24.50
2017-08-14T12:08:03.427Z,24.00
2017-08-14T12:10:32.276Z,23.70
2017-08-14T12:13:00.380Z,23.80
2017-08-14T12:15:29.232Z,24.50
2017-08-14T12:17:57.347Z,25.80
2017-08-14T12:20:26.195Z,26.00
2017-08-14T12:22:54.363Z,23.40
2017-08-14T12:25:22.820Z,24.70
2017-08-14T12:27:50.899Z,25.20
2017-08-14T12:30:19.091Z,24.80
2017-08-14T12:32:47.155Z,26.60
2017-08-14T12:35:15.271Z,25.60
2017-08-14T12:37:43.751Z,26.80
2017-08-14T12:40:11.822Z,25.30
2017-08-14T12:42:39.938Z,26.60
2017-08-14T12:45:08.008Z,27.20
2017-08-14T12:47:36.618Z,27.70
2017-08-14T12:50:04.654Z,27.70
2017-08-14T12:52:33.131Z,27.70
2017-08-14T12:55:02.014Z,25.90
2017-08-14T12:57:30.855Z,25.40
2017-08-14T12:59:58.927Z,24.90
2017-08-14T13:02:27.033Z,23.80
2017-08-14T13:04:55.499Z,23.70
2017-08-14T13:07:23.615Z,23.10
2017-08-14T13:09:51.696Z,23.50
2017-08-14T13:12:19.767Z,23.10
2017-08-14T13:14:47.875Z,23.00
2017-08-14T13:17:15.956Z,25.00
2017-08-14T13:19:44.067Z,24.20
2017-08-14T13:22:12.911Z,22.80
2017-08-14T13:24:41.012Z,22.80
2017-08-14T13:27:09.086Z,22.70
2017-08-14T13:29:37.936Z,24.70
2017-08-14T13:32:06.035Z,24.40
2017-08-14T13:34:34.110Z,26.00
2017-08-14T13:37:02.207Z,26.50
2017-08-14T13:39:31.088Z,30.00
2017-08-14T13:41:59.946Z,30.40
2017-08-14T13:44:28.032Z,29.80
2017-08-14T13:46:56.143Z,30.40
2017-08-14T13:49:24.226Z,32.00
2017-08-14T13:51:52.307Z,31.30
2017-08-14T13:54:20.407Z,32.00
2017-08-14T13:56:48.484Z,28.10
2017-08-14T13:59:16.588Z,26.10
2017-08-14T14:01:45.439Z,25.60
2017-08-14T14:04:13.567Z,25.30
2017-08-14T14:06:42.040Z,27.50
2017-08-14T14:09:10.878Z,29.70
2017-08-14T14:11:38.980Z,30.20
2017-08-14T14:14:07.455Z,30.40
2017-08-14T14:16:35.547Z,27.40
2017-08-14T14:19:04.050Z,26.60
2017-08-14T14:21:32.154Z,26.20
2017-08-14T14:24:00.220Z,24.80
2017-08-14T14:26:28.295Z,25.00
2017-08-14T14:28:56.399Z,23.70
2017-08-14T14:31:24.484Z,23.50
2017-08-14T14:33:52.563Z,21.00
2017-08-14T14:36:21.467Z,20.00
2017-08-14T14:38:50.302Z,21.40
2017-08-14T14:41:18.386Z,21.40
2017-08-14T14:43:46.542Z,24.30
2017-08-14T14:46:15.435Z,26.90
2017-08-14T14:48:43.867Z,28.80
2017-08-14T14:51:12.747Z,29.30
2017-08-14T14:53:41.231Z,26.00
2017-08-14T14:56:10.070Z,24.40
2017-08-14T14:58:38.476Z,21.90
2017-08-14T15:01:06.550Z,21.00
2017-08-14T15:03:34.632Z,22.60
2017-08-14T15:06:02.731Z,23.00
2017-08-14T15:08:31.575Z,22.80
2017-08-14T15:10:59.691Z,22.40
2017-08-14T15:13:28.628Z,23.00
2017-08-14T15:15:56.662Z,23.80
2017-08-14T15:18:24.763Z,23.00
2017-08-14T15:20:52.858Z,21.50
2017-08-14T15:23:20.935Z,22.00
2017-08-14T15:25:49.051Z,23.50
2017-08-14T15:28:17.896Z,23.40
2017-08-14T15:30:45.963Z,23.30
2017-08-14T15:33:14.124Z,24.50
2017-08-14T15:35:42.299Z,25.30
2017-08-14T15:38:10.369Z,27.00
2017-08-14T15:40:38.415Z,28.10
2017-08-14T15:43:06.519Z,29.00
2017-08-14T15:45:34.599Z,30.20
2017-08-14T15:48:02.675Z,29.70
2017-08-14T15:50:30.771Z,30.00
2017-08-14T15:52:59.611Z,31.40
2017-08-14T15:55:27.730Z,31.00
2017-08-14T15:57:55.807Z,31.90
2017-08-14T16:00:23.911Z,31.40
2017-08-14T16:02:51.995Z,31.10
2017-08-14T16:05:20.512Z,30.70
2017-08-14T16:07:48.596Z,31.20
2017-08-14T16:10:16.670Z,29.90
2017-08-14T16:12:44.820Z,30.00
2017-08-14T16:15:13.290Z,29.00
2017-08-14T16:17:41.767Z,28.00
2017-08-14T16:20:10.271Z,26.40
2017-08-14T16:22:38.351Z,25.40
2017-08-14T16:25:06.851Z,24.90
2017-08-14T16:27:35.690Z,25.30
2017-08-14T16:30:03.782Z,25.10
2017-08-14T16:32:31.865Z,25.40
2017-08-14T16:34:59.968Z,25.50
2017-08-14T16:37:28.830Z,26.80
2017-08-14T16:39:56.916Z,25.80
2017-08-14T16:42:25.014Z,26.50
2017-08-14T16:44:53.491Z,28.20
2017-08-14T16:47:21.563Z,28.60
2017-08-14T16:49:50.438Z,29.80
2017-08-14T16:52:19.289Z,30.00
2017-08-14T16:54:47.760Z,29.20
2017-08-14T16:57:15.867Z,28.50
2017-08-14T16:59:44.336Z,28.00
2017-08-14T17:02:12.815Z,28.50
2017-08-14T17:04:41.352Z,29.30
2017-08-14T17:07:09.436Z,29.40
2017-08-14T17:09:37.915Z,29.50
2017-08-14T17:12:06.022Z,29.80
2017-08-14T17:14:34.105Z,30.60
2017-08-14T17:17:02.580Z,30.30
2017-08-14T17:19:30.687Z,31.40
2017-08-14T17:21:59.158Z,31.40
2017-08-14T17:24:28.008Z,32.80
2017-08-14T17:26:56.110Z,32.80
2017-08-14T17:29:24.591Z,32.70
2017-08-14T17:31:52.693Z,33.20
2017-08-14T17:34:21.531Z,34.20
2017-08-14T17:36:49.655Z,33.80
2017-08-14T17:39:18.508Z,34.60
2017-08-14T17:41:46.579Z,34.60
2017-08-14T17:44:14.684Z,34.70
2017-08-14T17:46:43.553Z,36.30
2017-08-14T17:49:11.646Z,36.50
2017-08-14T17:51:40.495Z,37.30
2017-08-14T17:54:08.987Z,36.50
2017-08-14T17:56:37.859Z,36.60
2017-08-14T17:59:05.943Z,37.10
2017-08-14T18:01:34.042Z,37.50
2017-08-14T18:04:02.131Z,37.30
2017-08-14T18:06:30.990Z,38.00
2017-08-14T18:08:59.067Z,37.70
2017-08-14T18:11:27.171Z,38.20
2017-08-14T18:13:56.030Z,38.80
2017-08-14T18:16:24.151Z,39.00
2017-08-14T18:18:52.232Z,40.50
2017-08-14T18:21:20.702Z,41.00
2017-08-14T18:23:49.583Z,41.50
2017-08-14T18:26:18.050Z,42.20
2017-08-14T18:28:46.898Z,44.70
2017-08-14T18:31:14.999Z,45.60
2017-08-14T18:33:43.953Z,46.60
2017-08-14T18:36:11.986Z,47.60
2017-08-14T18:38:40.067Z,48.50
2017-08-14T18:41:08.271Z,49.30
2017-08-14T18:43:36.752Z,49.80
2017-08-14T18:46:04.824Z,50.00
2017-08-14T18:48:32.924Z,51.00
2017-08-14T18:51:01.000Z,51.40
2017-08-14T18:53:29.965Z,51.80
2017-08-14T18:55:58.010Z,52.20
2017-08-14T18:58:26.112Z,52.50
2017-08-14T19:00:54.182Z,52.80
2017-08-14T19:03:22.351Z,53.50
2017-08-14T19:05:51.240Z,54.50
2017-08-14T19:08:21.120Z,54.50
2017-08-14T19:10:47.422Z,54.70
2017-08-14T19:13:15.504Z,54.50
2017-08-14T19:15:44.000Z,55.30
2017-08-14T19:18:12.474Z,55.80
2017-08-14T19:20:41.334Z,56.50
2017-08-14T19:23:09.422Z,55.20
2017-08-14T19:25:37.915Z,55.90
2017-08-14T19:28:06.756Z,56.20
2017-08-14T19:30:35.274Z,56.30
2017-08-14T19:33:03.352Z,56.80
2017-08-14T19:35:31.423Z,56.20
2017-08-14T19:37:59.543Z,56.60
2017-08-14T19:40:27.619Z,55.00
2017-08-14T19:42:55.694Z,55.60
2017-08-14T19:45:24.283Z,54.70
2017-08-14T19:47:52.726Z,54.20
2017-08-14T19:50:21.570Z,55.90
2017-08-14T19:52:49.667Z,54.50
2017-08-14T19:55:18.515Z,55.10
2017-08-14T19:57:46.631Z,53.80
2017-08-14T20:00:15.471Z,54.70
2017-08-14T20:02:43.547Z,53.80
2017-08-14T20:05:11.656Z,54.30
2017-08-14T20:07:40.207Z,54.40
2017-08-14T20:10:08.296Z,54.30
2017-08-14T20:12:37.140Z,52.50
2017-08-14T20:15:05.615Z,54.00
2017-08-14T20:17:33.720Z,53.60
2017-08-14T20:20:02.564Z,54.40
2017-08-14T20:22:31.431Z,56.20
2017-08-14T20:25:00.315Z,55.20
2017-08-14T20:27:28.444Z,55.70
2017-08-14T20:29:56.523Z,56.20
2017-08-14T20:32:24.599Z,56.80
2017-08-14T20:34:52.717Z,56.80
2017-08-14T20:37:20.823Z,56.90
2017-08-14T20:39:48.919Z,57.20
2017-08-14T20:42:17.002Z,56.50
2017-08-14T20:44:45.094Z,55.80
2017-08-14T20:47:13.195Z,55.40
2017-08-14T20:49:41.695Z,55.20
2017-08-14T20:52:09.780Z,54.90
2017-08-14T20:54:37.863Z,55.30
2017-08-14T20:57:06.735Z,55.30
2017-08-14T20:59:34.829Z,55.30
2017-08-14T21:02:02.891Z,55.60
2017-08-14T21:04:30.987Z,55.60
2017-08-14T21:06:59.072Z,56.10
2017-08-14T21:09:27.167Z,56.20
2017-08-14T21:11:56.051Z,56.90
2017-08-14T21:14:24.131Z,56.80
2017-08-14T21:16:52.966Z,56.10
2017-08-14T21:19:21.072Z,56.00
2017-08-14T21:21:49.147Z,56.30
2017-08-14T21:24:17.222Z,56.30
2017-08-14T21:26:45.328Z,56.60
2017-08-14T21:29:13.413Z,55.10
2017-08-14T21:31:41.527Z,56.50
2017-08-14T21:34:09.612Z,56.60
2017-08-14T21:36:37.692Z,56.20
2017-08-14T21:39:05.786Z,56.20
2017-08-14T21:41:34.632Z,56.00
2017-08-14T21:44:02.801Z,56.00
2017-08-14T21:46:30.847Z,55.90
2017-08-14T21:48:58.924Z,55.90
2017-08-14T21:51:27.019Z,55.70
2017-08-14T21:53:55.140Z,55.30
2017-08-14T21:56:23.219Z,55.30
2017-08-14T21:58:51.291Z,55.60
2017-08-14T22:01:19.399Z,55.30
2017-08-14T22:03:47.476Z,55.40
2017-08-14T22:06:15.595Z,55.20
2017-08-14T22:08:44.440Z,55.50
2017-08-14T22:11:12.511Z,56.00
2017-08-14T22:13:40.620Z,56.00
2017-08-14T22:16:08.700Z,55.10
2017-08-14T22:18:36.774Z,54.50
2017-08-14T22:21:04.876Z,54.60
2017-08-14T22:23:32.971Z,55.30
2017-08-14T22:26:01.067Z,56.40
2017-08-14T22:28:29.538Z,56.00
2017-08-14T22:30:57.660Z,56.00
2017-08-14T22:33:25.739Z,56.00
2017-08-14T22:35:53.815Z,54.90
2017-08-14T22:38:21.916Z,54.50
2017-08-14T22:40:50.011Z,54.20
2017-08-14T22:43:18.087Z,54.90
2017-08-14T22:45:46.179Z,55.40
2017-08-14T22:48:15.052Z,56.20
2017-08-14T22:50:43.151Z,55.50
2017-08-14T22:53:11.231Z,56.00
2017-08-14T22:55:39.338Z,56.00
2017-08-14T22:58:07.415Z,56.40
2017-08-14T23:00:36.284Z,55.70
2017-08-14T23:03:04.354Z,56.30
2017-08-14T23:05:32.467Z,55.40
2017-08-14T23:08:00.939Z,55.30
2017-08-14T23:10:29.014Z,55.50
2017-08-14T23:12:57.514Z,56.00
2017-08-14T23:15:25.604Z,56.00
2017-08-14T23:17:54.439Z,56.70
2017-08-14T23:20:22.544Z,56.00
2017-08-14T23:22:50.621Z,56.60
2017-08-14T23:25:18.723Z,56.10
2017-08-14T23:27:46.803Z,56.10
2017-08-14T23:30:14.901Z,56.40
2017-08-14T23:32:42.999Z,56.60
2017-08-14T23:35:11.103Z,57.60
2017-08-14T23:37:39.947Z,57.90
2017-08-14T23:40:08.052Z,57.40
2017-08-14T23:42:36.132Z,57.20
2017-08-14T23:45:05.015Z,57.50
2017-08-14T23:47:33.859Z,57.40
2017-08-14T23:50:02.330Z,57.00
2017-08-14T23:52:30.426Z,56.50
2017-08-14T23:54:58.503Z,56.60
2017-08-14T23:57:26.603Z,56.70
2017-08-14T23:59:55.451Z,57.20
